LJMB/MBX METAR and TAF weather

Enter ICAO airport designator
Station Type Date Time Source
LJMB METAR 2021/07/27 22:00 UTC NOAA

LJMB 272200Z AUTO VRB02KT 9999 NCD 21/18 Q1016


Station Type Date Time Source
LJMB Decoded METAR 2021/07/27 22:00 UTC NOAA

Maribor / Slivnica, Slovenia (LJMB) 46-29N 015-41E 265M
Jul 27, 2021 - 06:00 PM EDT / 2021.07.27 2200 UTC
Wind: Variable at 2 MPH (2 KT):0
Visibility: greater than 7 mile(s):0
Temperature: 69 F (21 C)
Dew Point: 64 F (18 C)
Relative Humidity: 82%
Pressure (altimeter): 30.00 in. Hg (1016 hPa)
ob: LJMB 272200Z AUTO VRB02KT 9999 NCD 21/18 Q1016
cycle: 22

Station Type Date Time Source
LJMB TAF 2021/07/27 18:06 UTC NOAA

TAF LJMB 271700Z 2718/2818 20008KT CAVOK PROB30
TEMPO 2815/2818 FEW045CB

Example: see airport list